Calvin, North Dakota
Current Conditions -  °F | °C
As of 6:15 PM on Wednesday 28 Jan 2015 (Local Time) from KD55 Reporting Station
Overcast Overcast  
Wind Chill:   Ceiling: 400
Heat Index: 23°   Visibility: 10mi
Dew Point: 21°   Wind: 17mph
Humidity: 93%   Direction: 330°NNW
Pressure: 29.96"   Gusts: NA
Location:  48.85°N, 98.94°W
Report Text: KD55 290015Z AUTO 33015KT 10SM OVC004 M05/M06 A2996 RMK AO2
Loading
Personal Weather Stations






























Interactive Weather Map New forecast layout! Learn more

10-Day Weather Forecast

Advertisements
Track Severe Weather on mobile